sensor_id;sensor_type;location;lat;lon;timestamp;P1;durP1;ratioP1;P2;durP2;ratioP2
82032;SDS011;71595;52.180;4.512;2023-07-20T00:00:24;1.48;;;0.90;;
82032;SDS011;71595;52.180;4.512;2023-07-20T00:02:53;2.90;;;0.70;;
82032;SDS011;71595;52.180;4.512;2023-07-20T00:05:37;2.67;;;1.08;;
82032;SDS011;71595;52.180;4.512;2023-07-20T00:08:03;1.23;;;0.77;;
82032;SDS011;71595;52.180;4.512;2023-07-20T00:10:28;1.10;;;0.82;;
82032;SDS011;71595;52.180;4.512;2023-07-20T00:12:54;1.00;;;0.70;;
82032;SDS011;71595;52.180;4.512;2023-07-20T00:15:19;2.47;;;1.17;;
82032;SDS011;71595;52.180;4.512;2023-07-20T00:17:44;2.45;;;0.80;;
82032;SDS011;71595;52.180;4.512;2023-07-20T00:20:10;1.42;;;0.90;;
82032;SDS011;71595;52.180;4.512;2023-07-20T00:22:36;1.65;;;0.80;;
82032;SDS011;71595;52.180;4.512;2023-07-20T00:25:02;3.33;;;1.10;;
82032;SDS011;71595;52.180;4.512;2023-07-20T00:27:27;1.73;;;0.75;;
82032;SDS011;71595;52.180;4.512;2023-07-20T00:29:53;1.48;;;0.95;;
82032;SDS011;71595;52.180;4.512;2023-07-20T00:32:18;1.08;;;0.80;;
82032;SDS011;71595;52.180;4.512;2023-07-20T00:34:44;1.45;;;0.82;;
82032;SDS011;71595;52.180;4.512;2023-07-20T00:37:09;1.40;;;1.00;;
82032;SDS011;71595;52.180;4.512;2023-07-20T00:39:34;2.13;;;0.88;;
82032;SDS011;71595;52.180;4.512;2023-07-20T00:42:00;2.08;;;0.80;;
82032;SDS011;71595;52.180;4.512;2023-07-20T00:44:28;1.75;;;0.80;;
82032;SDS011;71595;52.180;4.512;2023-07-20T00:46:54;1.75;;;0.80;;
82032;SDS011;71595;52.180;4.512;2023-07-20T00:49:20;1.23;;;0.55;;
82032;SDS011;71595;52.180;4.512;2023-07-20T00:51:47;1.33;;;0.85;;
82032;SDS011;71595;52.180;4.512;2023-07-20T00:54:13;2.95;;;0.85;;
82032;SDS011;71595;52.180;4.512;2023-07-20T00:56:40;1.23;;;0.80;;
82032;SDS011;71595;52.180;4.512;2023-07-20T00:59:05;1.17;;;0.60;;
82032;SDS011;71595;52.180;4.512;2023-07-20T01:01:30;1.13;;;0.70;;
82032;SDS011;71595;52.180;4.512;2023-07-20T01:03:56;1.60;;;0.60;;
82032;SDS011;71595;52.180;4.512;2023-07-20T01:06:26;0.65;;;0.55;;
82032;SDS011;71595;52.180;4.512;2023-07-20T01:14:57;1.05;;;0.60;;
82032;SDS011;71595;52.180;4.512;2023-07-20T01:17:22;1.08;;;0.65;;
82032;SDS011;71595;52.180;4.512;2023-07-20T01:19:49;1.73;;;0.77;;
82032;SDS011;71595;52.180;4.512;2023-07-20T01:33:14;2.78;;;0.80;;
82032;SDS011;71595;52.180;4.512;2023-07-20T01:35:41;1.98;;;0.82;;
82032;SDS011;71595;52.180;4.512;2023-07-20T01:38:09;2.22;;;0.60;;
82032;SDS011;71595;52.180;4.512;2023-07-20T01:40:35;1.25;;;0.70;;
82032;SDS011;71595;52.180;4.512;2023-07-20T01:43:01;3.55;;;0.80;;
82032;SDS011;71595;52.180;4.512;2023-07-20T01:45:27;0.60;;;0.52;;
82032;SDS011;71595;52.180;4.512;2023-07-20T01:47:53;1.88;;;0.70;;
82032;SDS011;71595;52.180;4.512;2023-07-20T01:50:18;1.30;;;0.65;;
82032;SDS011;71595;52.180;4.512;2023-07-20T01:52:43;2.50;;;0.80;;
82032;SDS011;71595;52.180;4.512;2023-07-20T01:55:09;1.52;;;0.80;;
82032;SDS011;71595;52.180;4.512;2023-07-20T01:57:37;2.38;;;0.70;;
82032;SDS011;71595;52.180;4.512;2023-07-20T02:00:03;2.20;;;0.77;;
82032;SDS011;71595;52.180;4.512;2023-07-20T02:02:29;1.73;;;0.55;;
82032;SDS011;71595;52.180;4.512;2023-07-20T02:04:54;2.65;;;0.57;;
82032;SDS011;71595;52.180;4.512;2023-07-20T02:07:19;1.05;;;0.73;;
82032;SDS011;71595;52.180;4.512;2023-07-20T02:09:45;2.38;;;0.80;;
82032;SDS011;71595;52.180;4.512;2023-07-20T02:12:10;1.05;;;0.65;;
82032;SDS011;71595;52.180;4.512;2023-07-20T02:14:35;0.90;;;0.60;;
82032;SDS011;71595;52.180;4.512;2023-07-20T02:17:01;2.08;;;0.70;;
82032;SDS011;71595;52.180;4.512;2023-07-20T02:19:26;1.73;;;0.80;;
82032;SDS011;71595;52.180;4.512;2023-07-20T02:21:52;1.60;;;0.80;;
82032;SDS011;71595;52.180;4.512;2023-07-20T02:24:18;1.75;;;0.95;;
82032;SDS011;71595;52.180;4.512;2023-07-20T02:26:43;2.45;;;0.80;;
82032;SDS011;71595;52.180;4.512;2023-07-20T02:29:08;1.45;;;0.73;;
82032;SDS011;71595;52.180;4.512;2023-07-20T02:31:36;2.00;;;0.82;;
82032;SDS011;71595;52.180;4.512;2023-07-20T02:34:07;1.60;;;0.90;;
82032;SDS011;71595;52.180;4.512;2023-07-20T02:36:33;1.65;;;1.00;;
82032;SDS011;71595;52.180;4.512;2023-07-20T02:39:11;2.47;;;1.17;;
82032;SDS011;71595;52.180;4.512;2023-07-20T02:41:37;1.60;;;1.00;;
82032;SDS011;71595;52.180;4.512;2023-07-20T02:44:03;2.55;;;0.80;;
82032;SDS011;71595;52.180;4.512;2023-07-20T02:46:28;1.67;;;0.95;;
82032;SDS011;71595;52.180;4.512;2023-07-20T02:48:55;1.35;;;0.70;;
82032;SDS011;71595;52.180;4.512;2023-07-20T02:51:21;2.85;;;1.08;;
82032;SDS011;71595;52.180;4.512;2023-07-20T02:53:46;2.53;;;1.00;;
82032;SDS011;71595;52.180;4.512;2023-07-20T02:56:11;2.35;;;1.08;;
82032;SDS011;71595;52.180;4.512;2023-07-20T02:58:39;2.22;;;0.80;;
82032;SDS011;71595;52.180;4.512;2023-07-20T03:01:08;1.70;;;0.90;;
82032;SDS011;71595;52.180;4.512;2023-07-20T03:03:34;1.73;;;0.98;;
82032;SDS011;71595;52.180;4.512;2023-07-20T03:06:03;2.20;;;0.80;;
82032;SDS011;71595;52.180;4.512;2023-07-20T03:08:29;2.10;;;1.20;;
82032;SDS011;71595;52.180;4.512;2023-07-20T03:10:55;1.50;;;1.05;;
82032;SDS011;71595;52.180;4.512;2023-07-20T03:13:20;2.10;;;0.90;;
82032;SDS011;71595;52.180;4.512;2023-07-20T03:15:46;2.30;;;0.90;;
82032;SDS011;71595;52.180;4.512;2023-07-20T03:18:11;3.03;;;0.90;;
82032;SDS011;71595;52.180;4.512;2023-07-20T03:20:37;1.83;;;0.90;;
82032;SDS011;71595;52.180;4.512;2023-07-20T03:23:02;2.15;;;1.10;;
82032;SDS011;71595;52.180;4.512;2023-07-20T03:25:28;2.78;;;1.05;;
82032;SDS011;71595;52.180;4.512;2023-07-20T03:27:53;2.88;;;1.20;;
82032;SDS011;71595;52.180;4.512;2023-07-20T03:30:19;3.05;;;1.25;;
82032;SDS011;71595;52.180;4.512;2023-07-20T03:32:44;3.47;;;1.30;;
82032;SDS011;71595;52.180;4.512;2023-07-20T03:35:09;2.22;;;0.98;;
82032;SDS011;71595;52.180;4.512;2023-07-20T03:37:35;2.45;;;1.38;;
82032;SDS011;71595;52.180;4.512;2023-07-20T03:40:03;1.73;;;1.15;;
82032;SDS011;71595;52.180;4.512;2023-07-20T03:42:29;3.35;;;1.00;;
82032;SDS011;71595;52.180;4.512;2023-07-20T03:44:55;3.08;;;1.02;;
82032;SDS011;71595;52.180;4.512;2023-07-20T03:47:21;1.50;;;1.10;;
82032;SDS011;71595;52.180;4.512;2023-07-20T03:49:46;4.13;;;1.63;;
82032;SDS011;71595;52.180;4.512;2023-07-20T03:52:12;2.65;;;1.40;;
82032;SDS011;71595;52.180;4.512;2023-07-20T03:54:37;6.38;;;1.50;;
82032;SDS011;71595;52.180;4.512;2023-07-20T03:57:02;2.55;;;1.00;;
82032;SDS011;71595;52.180;4.512;2023-07-20T03:59:28;2.72;;;1.13;;
82032;SDS011;71595;52.180;4.512;2023-07-20T04:01:53;3.20;;;1.08;;
82032;SDS011;71595;52.180;4.512;2023-07-20T04:04:19;1.63;;;1.00;;
82032;SDS011;71595;52.180;4.512;2023-07-20T04:06:45;2.40;;;1.20;;
82032;SDS011;71595;52.180;4.512;2023-07-20T04:09:11;2.13;;;1.15;;
82032;SDS011;71595;52.180;4.512;2023-07-20T04:11:36;2.97;;;1.30;;
82032;SDS011;71595;52.180;4.512;2023-07-20T04:14:02;3.60;;;1.10;;
82032;SDS011;71595;52.180;4.512;2023-07-20T04:16:27;2.80;;;1.20;;
82032;SDS011;71595;52.180;4.512;2023-07-20T04:18:54;2.05;;;1.05;;
82032;SDS011;71595;52.180;4.512;2023-07-20T04:21:21;2.08;;;1.38;;
82032;SDS011;71595;52.180;4.512;2023-07-20T04:23:46;2.58;;;1.40;;
82032;SDS011;71595;52.180;4.512;2023-07-20T04:26:11;2.15;;;1.20;;
82032;SDS011;71595;52.180;4.512;2023-07-20T04:28:37;1.85;;;1.20;;
82032;SDS011;71595;52.180;4.512;2023-07-20T04:31:14;1.80;;;1.30;;
82032;SDS011;71595;52.180;4.512;2023-07-20T04:33:40;4.32;;;1.60;;
82032;SDS011;71595;52.180;4.512;2023-07-20T04:36:06;2.95;;;1.50;;
82032;SDS011;71595;52.180;4.512;2023-07-20T04:38:33;2.55;;;1.20;;
82032;SDS011;71595;52.180;4.512;2023-07-20T04:40:59;3.58;;;1.20;;
82032;SDS011;71595;52.180;4.512;2023-07-20T04:43:24;2.70;;;1.25;;
82032;SDS011;71595;52.180;4.512;2023-07-20T04:45:50;4.55;;;1.30;;
82032;SDS011;71595;52.180;4.512;2023-07-20T04:48:16;2.95;;;1.10;;
82032;SDS011;71595;52.180;4.512;2023-07-20T04:50:43;6.45;;;1.85;;
82032;SDS011;71595;52.180;4.512;2023-07-20T04:53:10;2.75;;;1.10;;
82032;SDS011;71595;52.180;4.512;2023-07-20T04:55:37;1.67;;;1.10;;
82032;SDS011;71595;52.180;4.512;2023-07-20T04:58:04;2.78;;;1.20;;
82032;SDS011;71595;52.180;4.512;2023-07-20T05:00:29;2.80;;;1.20;;
82032;SDS011;71595;52.180;4.512;2023-07-20T05:02:55;1.50;;;1.00;;
82032;SDS011;71595;52.180;4.512;2023-07-20T05:05:21;1.90;;;1.00;;
82032;SDS011;71595;52.180;4.512;2023-07-20T05:07:46;1.95;;;1.00;;
82032;SDS011;71595;52.180;4.512;2023-07-20T05:10:12;1.65;;;1.00;;
82032;SDS011;71595;52.180;4.512;2023-07-20T05:12:37;1.38;;;0.90;;
82032;SDS011;71595;52.180;4.512;2023-07-20T05:15:03;1.15;;;0.73;;
82032;SDS011;71595;52.180;4.512;2023-07-20T05:17:29;1.95;;;1.05;;
82032;SDS011;71595;52.180;4.512;2023-07-20T05:19:54;2.50;;;1.13;;
82032;SDS011;71595;52.180;4.512;2023-07-20T05:22:20;2.30;;;0.90;;
82032;SDS011;71595;52.180;4.512;2023-07-20T05:24:45;2.83;;;0.90;;
82032;SDS011;71595;52.180;4.512;2023-07-20T05:27:10;2.25;;;1.00;;
82032;SDS011;71595;52.180;4.512;2023-07-20T05:29:36;2.53;;;0.80;;
82032;SDS011;71595;52.180;4.512;2023-07-20T05:32:01;1.20;;;0.75;;
82032;SDS011;71595;52.180;4.512;2023-07-20T05:34:28;6.18;;;1.10;;
82032;SDS011;71595;52.180;4.512;2023-07-20T05:36:53;2.28;;;1.02;;
82032;SDS011;71595;52.180;4.512;2023-07-20T05:39:19;2.08;;;0.80;;
82032;SDS011;71595;52.180;4.512;2023-07-20T05:41:45;1.00;;;0.77;;
82032;SDS011;71595;52.180;4.512;2023-07-20T05:44:10;3.05;;;0.90;;
82032;SDS011;71595;52.180;4.512;2023-07-20T05:46:35;1.50;;;0.80;;
82032;SDS011;71595;52.180;4.512;2023-07-20T05:49:01;4.60;;;1.00;;
82032;SDS011;71595;52.180;4.512;2023-07-20T05:51:26;1.27;;;0.82;;
82032;SDS011;71595;52.180;4.512;2023-07-20T05:53:52;1.65;;;1.00;;
82032;SDS011;71595;52.180;4.512;2023-07-20T05:56:17;2.00;;;1.00;;
82032;SDS011;71595;52.180;4.512;2023-07-20T05:58:43;3.28;;;1.13;;
82032;SDS011;71595;52.180;4.512;2023-07-20T06:01:08;2.42;;;0.80;;
82032;SDS011;71595;52.180;4.512;2023-07-20T06:03:34;2.95;;;1.00;;
82032;SDS011;71595;52.180;4.512;2023-07-20T06:06:02;1.63;;;1.10;;
82032;SDS011;71595;52.180;4.512;2023-07-20T06:08:29;4.13;;;1.05;;
82032;SDS011;71595;52.180;4.512;2023-07-20T06:11:04;1.55;;;0.88;;
82032;SDS011;71595;52.180;4.512;2023-07-20T06:13:30;1.25;;;0.75;;
82032;SDS011;71595;52.180;4.512;2023-07-20T06:15:56;1.50;;;0.90;;
82032;SDS011;71595;52.180;4.512;2023-07-20T06:18:24;2.00;;;1.00;;
82032;SDS011;71595;52.180;4.512;2023-07-20T06:20:50;2.85;;;0.93;;
82032;SDS011;71595;52.180;4.512;2023-07-20T06:23:16;2.95;;;1.08;;
82032;SDS011;71595;52.180;4.512;2023-07-20T06:25:42;3.65;;;1.95;;
82032;SDS011;71595;52.180;4.512;2023-07-20T06:28:07;2.28;;;1.00;;
82032;SDS011;71595;52.180;4.512;2023-07-20T06:30:36;2.13;;;1.05;;
82032;SDS011;71595;52.180;4.512;2023-07-20T06:33:01;2.78;;;1.08;;
82032;SDS011;71595;52.180;4.512;2023-07-20T06:35:27;1.40;;;1.00;;
82032;SDS011;71595;52.180;4.512;2023-07-20T06:37:52;1.90;;;1.35;;
82032;SDS011;71595;52.180;4.512;2023-07-20T06:40:17;2.38;;;0.95;;
82032;SDS011;71595;52.180;4.512;2023-07-20T06:42:43;2.33;;;1.00;;
82032;SDS011;71595;52.180;4.512;2023-07-20T06:45:08;1.52;;;1.10;;
82032;SDS011;71595;52.180;4.512;2023-07-20T06:47:34;2.17;;;1.10;;
82032;SDS011;71595;52.180;4.512;2023-07-20T06:50:00;1.55;;;0.82;;
82032;SDS011;71595;52.180;4.512;2023-07-20T06:52:25;3.20;;;0.90;;
82032;SDS011;71595;52.180;4.512;2023-07-20T06:54:56;2.08;;;1.00;;
82032;SDS011;71595;52.180;4.512;2023-07-20T06:57:22;2.10;;;1.20;;
82032;SDS011;71595;52.180;4.512;2023-07-20T06:59:50;3.35;;;1.02;;
82032;SDS011;71595;52.180;4.512;2023-07-20T07:02:15;1.77;;;0.90;;
82032;SDS011;71595;52.180;4.512;2023-07-20T07:04:41;2.40;;;1.38;;
82032;SDS011;71595;52.180;4.512;2023-07-20T07:07:07;1.35;;;0.90;;
82032;SDS011;71595;52.180;4.512;2023-07-20T07:09:32;1.98;;;1.13;;
82032;SDS011;71595;52.180;4.512;2023-07-20T07:11:58;2.05;;;0.95;;
82032;SDS011;71595;52.180;4.512;2023-07-20T07:14:23;3.72;;;1.15;;
82032;SDS011;71595;52.180;4.512;2023-07-20T07:16:49;1.55;;;1.00;;
82032;SDS011;71595;52.180;4.512;2023-07-20T07:19:14;1.90;;;1.00;;
82032;SDS011;71595;52.180;4.512;2023-07-20T07:21:40;2.42;;;0.95;;
82032;SDS011;71595;52.180;4.512;2023-07-20T07:24:05;1.77;;;0.90;;
82032;SDS011;71595;52.180;4.512;2023-07-20T07:26:32;2.35;;;0.90;;
82032;SDS011;71595;52.180;4.512;2023-07-20T07:28:58;2.67;;;0.85;;
82032;SDS011;71595;52.180;4.512;2023-07-20T07:31:24;2.17;;;0.80;;
82032;SDS011;71595;52.180;4.512;2023-07-20T07:33:50;1.30;;;0.90;;
82032;SDS011;71595;52.180;4.512;2023-07-20T07:36:16;2.50;;;1.10;;
82032;SDS011;71595;52.180;4.512;2023-07-20T07:38:41;2.22;;;0.93;;
82032;SDS011;71595;52.180;4.512;2023-07-20T07:41:06;2.08;;;1.20;;
82032;SDS011;71595;52.180;4.512;2023-07-20T07:43:32;1.95;;;1.00;;
82032;SDS011;71595;52.180;4.512;2023-07-20T07:45:58;1.98;;;0.75;;
82032;SDS011;71595;52.180;4.512;2023-07-20T07:48:23;1.63;;;0.70;;
82032;SDS011;71595;52.180;4.512;2023-07-20T07:50:50;2.13;;;0.70;;
82032;SDS011;71595;52.180;4.512;2023-07-20T07:53:16;1.00;;;0.77;;
82032;SDS011;71595;52.180;4.512;2023-07-20T07:55:41;0.85;;;0.60;;
82032;SDS011;71595;52.180;4.512;2023-07-20T07:58:06;3.63;;;1.02;;
82032;SDS011;71595;52.180;4.512;2023-07-20T08:00:32;0.93;;;0.68;;
82032;SDS011;71595;52.180;4.512;2023-07-20T08:02:57;1.35;;;0.75;;
82032;SDS011;71595;52.180;4.512;2023-07-20T08:05:23;1.63;;;0.73;;
82032;SDS011;71595;52.180;4.512;2023-07-20T08:07:49;2.03;;;0.65;;
82032;SDS011;71595;52.180;4.512;2023-07-20T08:10:14;0.70;;;0.50;;
82032;SDS011;71595;52.180;4.512;2023-07-20T08:12:39;1.05;;;0.60;;
82032;SDS011;71595;52.180;4.512;2023-07-20T08:15:05;1.50;;;0.70;;
82032;SDS011;71595;52.180;4.512;2023-07-20T08:17:31;0.98;;;0.73;;
82032;SDS011;71595;52.180;4.512;2023-07-20T08:19:56;1.30;;;0.63;;
82032;SDS011;71595;52.180;4.512;2023-07-20T08:22:21;2.47;;;0.80;;
82032;SDS011;71595;52.180;4.512;2023-07-20T08:24:47;1.35;;;0.68;;
82032;SDS011;71595;52.180;4.512;2023-07-20T08:27:12;0.88;;;0.63;;
82032;SDS011;71595;52.180;4.512;2023-07-20T08:29:38;1.90;;;0.80;;
82032;SDS011;71595;52.180;4.512;2023-07-20T08:32:04;1.45;;;0.60;;
82032;SDS011;71595;52.180;4.512;2023-07-20T08:34:30;1.10;;;0.65;;
82032;SDS011;71595;52.180;4.512;2023-07-20T08:36:56;2.30;;;0.63;;
82032;SDS011;71595;52.180;4.512;2023-07-20T08:39:22;2.33;;;0.90;;
82032;SDS011;71595;52.180;4.512;2023-07-20T08:41:48;1.15;;;0.70;;
82032;SDS011;71595;52.180;4.512;2023-07-20T08:44:14;1.67;;;0.52;;
82032;SDS011;71595;52.180;4.512;2023-07-20T08:46:40;0.95;;;0.50;;
82032;SDS011;71595;52.180;4.512;2023-07-20T08:49:06;1.50;;;0.95;;
82032;SDS011;71595;52.180;4.512;2023-07-20T08:51:31;1.67;;;0.70;;
82032;SDS011;71595;52.180;4.512;2023-07-20T08:53:58;1.48;;;0.70;;
82032;SDS011;71595;52.180;4.512;2023-07-20T08:56:23;1.35;;;0.57;;
82032;SDS011;71595;52.180;4.512;2023-07-20T08:58:51;1.05;;;0.60;;
82032;SDS011;71595;52.180;4.512;2023-07-20T09:01:17;1.30;;;0.70;;
82032;SDS011;71595;52.180;4.512;2023-07-20T09:03:44;1.67;;;0.50;;
82032;SDS011;71595;52.180;4.512;2023-07-20T09:06:10;0.93;;;0.45;;
82032;SDS011;71595;52.180;4.512;2023-07-20T09:08:37;1.77;;;0.70;;
82032;SDS011;71595;52.180;4.512;2023-07-20T09:11:03;1.05;;;0.55;;
82032;SDS011;71595;52.180;4.512;2023-07-20T09:13:29;0.80;;;0.50;;
82032;SDS011;71595;52.180;4.512;2023-07-20T09:15:54;1.33;;;0.63;;
82032;SDS011;71595;52.180;4.512;2023-07-20T09:18:30;1.80;;;0.60;;
82032;SDS011;71595;52.180;4.512;2023-07-20T09:21:04;1.13;;;0.55;;
82032;SDS011;71595;52.180;4.512;2023-07-20T09:23:35;1.08;;;0.50;;
82032;SDS011;71595;52.180;4.512;2023-07-20T09:26:11;1.13;;;0.63;;
82032;SDS011;71595;52.180;4.512;2023-07-20T09:28:41;1.73;;;0.70;;
82032;SDS011;71595;52.180;4.512;2023-07-20T09:31:16;1.00;;;0.50;;
82032;SDS011;71595;52.180;4.512;2023-07-20T09:33:43;5.93;;;1.08;;
82032;SDS011;71595;52.180;4.512;2023-07-20T09:36:09;4.57;;;1.08;;
82032;SDS011;71595;52.180;4.512;2023-07-20T09:38:36;0.98;;;0.60;;
82032;SDS011;71595;52.180;4.512;2023-07-20T09:41:02;1.95;;;0.60;;
82032;SDS011;71595;52.180;4.512;2023-07-20T09:43:30;1.73;;;0.60;;
82032;SDS011;71595;52.180;4.512;2023-07-20T09:45:57;3.42;;;0.70;;
82032;SDS011;71595;52.180;4.512;2023-07-20T09:48:24;1.23;;;0.50;;
82032;SDS011;71595;52.180;4.512;2023-07-20T09:50:50;0.88;;;0.63;;
82032;SDS011;71595;52.180;4.512;2023-07-20T09:53:16;0.80;;;0.70;;
82032;SDS011;71595;52.180;4.512;2023-07-20T09:55:46;1.60;;;0.68;;
82032;SDS011;71595;52.180;4.512;2023-07-20T09:58:13;0.85;;;0.63;;
82032;SDS011;71595;52.180;4.512;2023-07-20T10:00:40;1.08;;;0.60;;
82032;SDS011;71595;52.180;4.512;2023-07-20T10:03:10;2.65;;;0.70;;
82032;SDS011;71595;52.180;4.512;2023-07-20T10:05:39;1.08;;;0.80;;
82032;SDS011;71595;52.180;4.512;2023-07-20T10:08:08;1.73;;;0.80;;
82032;SDS011;71595;52.180;4.512;2023-07-20T10:10:37;1.27;;;0.60;;
82032;SDS011;71595;52.180;4.512;2023-07-20T10:13:05;0.98;;;0.52;;
82032;SDS011;71595;52.180;4.512;2023-07-20T10:15:36;1.73;;;0.88;;
82032;SDS011;71595;52.180;4.512;2023-07-20T10:18:38;3.72;;;1.08;;
82032;SDS011;71595;52.180;4.512;2023-07-20T10:21:05;2.65;;;0.90;;
82032;SDS011;71595;52.180;4.512;2023-07-20T10:23:32;0.95;;;0.68;;
82032;SDS011;71595;52.180;4.512;2023-07-20T10:25:58;1.80;;;0.70;;
82032;SDS011;71595;52.180;4.512;2023-07-20T10:28:28;0.70;;;0.50;;
82032;SDS011;71595;52.180;4.512;2023-07-20T10:30:53;1.70;;;0.60;;
82032;SDS011;71595;52.180;4.512;2023-07-20T10:33:18;1.00;;;0.52;;
82032;SDS011;71595;52.180;4.512;2023-07-20T10:35:54;1.60;;;0.88;;
82032;SDS011;71595;52.180;4.512;2023-07-20T10:41:35;0.98;;;0.68;;
82032;SDS011;71595;52.180;4.512;2023-07-20T10:44:04;1.55;;;0.60;;
82032;SDS011;71595;52.180;4.512;2023-07-20T10:49:04;0.88;;;0.50;;
82032;SDS011;71595;52.180;4.512;2023-07-20T10:51:40;0.98;;;0.47;;
82032;SDS011;71595;52.180;4.512;2023-07-20T10:56:47;0.82;;;0.60;;
82032;SDS011;71595;52.180;4.512;2023-07-20T11:01:45;1.35;;;0.68;;
82032;SDS011;71595;52.180;4.512;2023-07-20T11:04:14;1.15;;;0.60;;
82032;SDS011;71595;52.180;4.512;2023-07-20T11:06:43;0.98;;;0.50;;
82032;SDS011;71595;52.180;4.512;2023-07-20T11:11:40;1.33;;;0.60;;
82032;SDS011;71595;52.180;4.512;2023-07-20T11:14:24;1.45;;;0.60;;
82032;SDS011;71595;52.180;4.512;2023-07-20T11:16:51;0.63;;;0.50;;
82032;SDS011;71595;52.180;4.512;2023-07-20T11:19:22;0.50;;;0.47;;
82032;SDS011;71595;52.180;4.512;2023-07-20T11:21:50;0.80;;;0.43;;
82032;SDS011;71595;52.180;4.512;2023-07-20T11:24:20;0.93;;;0.55;;
82032;SDS011;71595;52.180;4.512;2023-07-20T11:26:49;2.35;;;0.70;;
82032;SDS011;71595;52.180;4.512;2023-07-20T11:29:16;1.55;;;0.77;;
82032;SDS011;71595;52.180;4.512;2023-07-20T11:31:44;0.88;;;0.50;;
82032;SDS011;71595;52.180;4.512;2023-07-20T11:34:14;1.30;;;0.70;;
82032;SDS011;71595;52.180;4.512;2023-07-20T11:36:41;1.48;;;0.60;;
82032;SDS011;71595;52.180;4.512;2023-07-20T11:39:08;2.10;;;0.57;;
82032;SDS011;71595;52.180;4.512;2023-07-20T11:41:34;1.10;;;0.60;;
82032;SDS011;71595;52.180;4.512;2023-07-20T11:44:00;2.30;;;0.68;;
82032;SDS011;71595;52.180;4.512;2023-07-20T11:46:27;1.00;;;0.68;;
82032;SDS011;71595;52.180;4.512;2023-07-20T11:48:56;3.25;;;1.20;;
82032;SDS011;71595;52.180;4.512;2023-07-20T11:51:23;1.38;;;0.70;;
82032;SDS011;71595;52.180;4.512;2023-07-20T11:53:49;1.00;;;0.50;;
82032;SDS011;71595;52.180;4.512;2023-07-20T11:56:14;1.52;;;0.70;;
82032;SDS011;71595;52.180;4.512;2023-07-20T11:58:43;1.63;;;0.50;;
82032;SDS011;71595;52.180;4.512;2023-07-20T12:01:11;1.20;;;0.60;;
82032;SDS011;71595;52.180;4.512;2023-07-20T12:03:37;0.73;;;0.50;;
82032;SDS011;71595;52.180;4.512;2023-07-20T12:06:06;1.23;;;0.38;;
82032;SDS011;71595;52.180;4.512;2023-07-20T12:08:35;1.58;;;0.68;;
82032;SDS011;71595;52.180;4.512;2023-07-20T12:11:03;0.93;;;0.50;;
82032;SDS011;71595;52.180;4.512;2023-07-20T12:13:35;1.33;;;0.57;;
82032;SDS011;71595;52.180;4.512;2023-07-20T12:16:09;0.82;;;0.52;;
82032;SDS011;71595;52.180;4.512;2023-07-20T12:18:45;1.75;;;0.70;;
82032;SDS011;71595;52.180;4.512;2023-07-20T12:21:10;2.15;;;0.50;;
82032;SDS011;71595;52.180;4.512;2023-07-20T12:23:39;0.57;;;0.50;;
82032;SDS011;71595;52.180;4.512;2023-07-20T12:26:09;2.08;;;0.63;;
82032;SDS011;71595;52.180;4.512;2023-07-20T12:28:38;0.70;;;0.60;;
82032;SDS011;71595;52.180;4.512;2023-07-20T12:31:06;0.50;;;0.40;;
82032;SDS011;71595;52.180;4.512;2023-07-20T12:33:31;2.20;;;0.63;;
82032;SDS011;71595;52.180;4.512;2023-07-20T12:35:57;1.55;;;0.50;;
82032;SDS011;71595;52.180;4.512;2023-07-20T12:38:24;0.57;;;0.43;;
82032;SDS011;71595;52.180;4.512;2023-07-20T12:40:50;1.15;;;0.68;;
82032;SDS011;71595;52.180;4.512;2023-07-20T12:43:16;0.63;;;0.50;;
82032;SDS011;71595;52.180;4.512;2023-07-20T12:45:41;1.20;;;0.57;;
82032;SDS011;71595;52.180;4.512;2023-07-20T12:48:13;0.80;;;0.50;;
82032;SDS011;71595;52.180;4.512;2023-07-20T12:50:39;0.90;;;0.50;;
82032;SDS011;71595;52.180;4.512;2023-07-20T12:53:04;1.25;;;0.60;;
82032;SDS011;71595;52.180;4.512;2023-07-20T12:55:33;0.93;;;0.50;;
82032;SDS011;71595;52.180;4.512;2023-07-20T12:57:58;0.40;;;0.40;;
82032;SDS011;71595;52.180;4.512;2023-07-20T13:00:24;0.82;;;0.40;;
82032;SDS011;71595;52.180;4.512;2023-07-20T13:05:41;1.40;;;0.50;;
82032;SDS011;71595;52.180;4.512;2023-07-20T13:08:13;1.10;;;0.77;;
82032;SDS011;71595;52.180;4.512;2023-07-20T13:10:39;1.50;;;0.57;;
82032;SDS011;71595;52.180;4.512;2023-07-20T13:13:05;0.52;;;0.43;;
82032;SDS011;71595;52.180;4.512;2023-07-20T13:15:31;1.00;;;0.47;;
82032;SDS011;71595;52.180;4.512;2023-07-20T13:17:58;0.63;;;0.40;;
82032;SDS011;71595;52.180;4.512;2023-07-20T13:20:24;2.03;;;0.60;;
82032;SDS011;71595;52.180;4.512;2023-07-20T13:22:51;1.15;;;0.75;;
82032;SDS011;71595;52.180;4.512;2023-07-20T13:25:16;1.35;;;0.80;;
82032;SDS011;71595;52.180;4.512;2023-07-20T13:27:42;3.05;;;1.00;;
82032;SDS011;71595;52.180;4.512;2023-07-20T13:30:07;0.60;;;0.40;;
82032;SDS011;71595;52.180;4.512;2023-07-20T13:32:35;1.65;;;0.47;;
82032;SDS011;71595;52.180;4.512;2023-07-20T13:35:01;0.80;;;0.47;;
82032;SDS011;71595;52.180;4.512;2023-07-20T13:37:27;0.95;;;0.60;;
82032;SDS011;71595;52.180;4.512;2023-07-20T13:39:53;0.77;;;0.50;;
82032;SDS011;71595;52.180;4.512;2023-07-20T13:42:19;0.43;;;0.40;;
82032;SDS011;71595;52.180;4.512;2023-07-20T13:44:45;0.50;;;0.30;;
82032;SDS011;71595;52.180;4.512;2023-07-20T13:47:11;0.90;;;0.50;;
82032;SDS011;71595;52.180;4.512;2023-07-20T13:49:37;1.75;;;0.50;;
82032;SDS011;71595;52.180;4.512;2023-07-20T13:52:02;2.15;;;0.60;;
82032;SDS011;71595;52.180;4.512;2023-07-20T13:54:27;1.63;;;0.50;;
82032;SDS011;71595;52.180;4.512;2023-07-20T13:56:53;0.80;;;0.50;;
82032;SDS011;71595;52.180;4.512;2023-07-20T13:59:18;1.52;;;0.55;;
82032;SDS011;71595;52.180;4.512;2023-07-20T14:01:50;1.27;;;0.60;;
82032;SDS011;71595;52.180;4.512;2023-07-20T14:04:16;1.27;;;0.50;;
82032;SDS011;71595;52.180;4.512;2023-07-20T14:06:42;0.90;;;0.50;;
82032;SDS011;71595;52.180;4.512;2023-07-20T14:09:07;4.53;;;1.42;;
82032;SDS011;71595;52.180;4.512;2023-07-20T14:11:33;0.90;;;0.60;;
82032;SDS011;71595;52.180;4.512;2023-07-20T14:13:58;0.57;;;0.50;;
82032;SDS011;71595;52.180;4.512;2023-07-20T14:16:24;0.68;;;0.40;;
82032;SDS011;71595;52.180;4.512;2023-07-20T14:18:50;1.10;;;0.50;;
82032;SDS011;71595;52.180;4.512;2023-07-20T14:21:16;1.45;;;0.52;;
82032;SDS011;71595;52.180;4.512;2023-07-20T14:23:44;0.82;;;0.50;;
82032;SDS011;71595;52.180;4.512;2023-07-20T14:26:14;0.95;;;0.65;;
82032;SDS011;71595;52.180;4.512;2023-07-20T14:28:40;1.08;;;0.50;;
82032;SDS011;71595;52.180;4.512;2023-07-20T14:31:05;0.77;;;0.45;;
82032;SDS011;71595;52.180;4.512;2023-07-20T14:33:31;1.63;;;0.70;;
82032;SDS011;71595;52.180;4.512;2023-07-20T14:35:57;1.77;;;0.60;;
82032;SDS011;71595;52.180;4.512;2023-07-20T14:38:22;0.80;;;0.40;;
82032;SDS011;71595;52.180;4.512;2023-07-20T14:40:47;0.85;;;0.50;;
82032;SDS011;71595;52.180;4.512;2023-07-20T14:43:13;1.27;;;0.50;;
82032;SDS011;71595;52.180;4.512;2023-07-20T14:45:40;3.33;;;0.75;;
82032;SDS011;71595;52.180;4.512;2023-07-20T14:48:08;0.82;;;0.60;;
82032;SDS011;71595;52.180;4.512;2023-07-20T14:50:33;0.80;;;0.47;;
82032;SDS011;71595;52.180;4.512;2023-07-20T14:53:00;1.02;;;0.52;;
82032;SDS011;71595;52.180;4.512;2023-07-20T14:55:25;0.75;;;0.40;;
82032;SDS011;71595;52.180;4.512;2023-07-20T14:57:51;1.55;;;0.50;;
82032;SDS011;71595;52.180;4.512;2023-07-20T15:00:16;1.95;;;0.80;;
82032;SDS011;71595;52.180;4.512;2023-07-20T15:02:42;0.73;;;0.40;;
82032;SDS011;71595;52.180;4.512;2023-07-20T15:05:09;0.73;;;0.50;;
82032;SDS011;71595;52.180;4.512;2023-07-20T15:07:35;1.33;;;0.50;;
82032;SDS011;71595;52.180;4.512;2023-07-20T15:10:01;1.15;;;0.70;;
82032;SDS011;71595;52.180;4.512;2023-07-20T15:12:27;1.23;;;0.63;;
82032;SDS011;71595;52.180;4.512;2023-07-20T15:17:34;1.25;;;0.50;;
82032;SDS011;71595;52.180;4.512;2023-07-20T15:20:01;0.60;;;0.50;;